Time;durP1;ratioP1;P1;durP2;ratioP2;P2;SDS_P1;SDS_P2;PMS_P1;PMS_P2;Temp;Humidity;BMP_temperature;BMP_pressure;BME280_temperature;BME280_humidity;BME280_pressure;Samples;Min_cycle;Max_cycle;Signal;HPM_P1;HPM_P2
2021/08/25 00:00:28;;;;;;;20.58;13.93;;;14.50;96.20;;;;;;5053077;28;20562;-58
2021/08/25 00:02:53;;;;;;;19.02;15.25;;;14.50;96.20;;;;;;5048557;28;20034;-58
2021/08/25 00:05:19;;;;;;;23.63;15.68;;;14.40;96.30;;;;;;5043415;28;20060;-59
2021/08/25 00:07:45;;;;;;;18.75;14.43;;;14.40;96.30;;;;;;5050963;28;20072;-58
2021/08/25 00:10:11;;;;;;;19.63;14.45;;;14.40;96.30;;;;;;5041039;28;20124;-58
2021/08/25 00:12:37;;;;;;;18.65;15.20;;;14.40;96.20;;;;;;5050974;28;20396;-58
2021/08/25 00:15:05;;;;;;;19.85;13.73;;;14.40;96.40;;;;;;5065731;28;20033;-58
2021/08/25 00:17:31;;;;;;;19.33;14.60;;;14.40;96.30;;;;;;5069885;28;20075;-58
2021/08/25 00:19:56;;;;;;;19.90;13.98;;;14.40;96.40;;;;;;5061497;28;20033;-58
2021/08/25 00:22:22;;;;;;;21.98;13.95;;;14.30;96.30;;;;;;5043212;28;20405;-56
2021/08/25 00:24:48;;;;;;;19.40;14.15;;;14.30;96.30;;;;;;5032708;28;20080;-58
2021/08/25 00:27:13;;;;;;;18.58;14.30;;;14.30;96.40;;;;;;5035523;28;20049;-58
2021/08/25 00:29:39;;;;;;;19.58;14.65;;;14.20;96.30;;;;;;5041899;28;20503;-58
2021/08/25 00:32:05;;;;;;;18.70;14.18;;;14.20;96.30;;;;;;5052351;28;20531;-58
2021/08/25 00:34:31;;;;;;;18.73;13.52;;;14.20;96.50;;;;;;5052447;28;20512;-58
2021/08/25 00:36:56;;;;;;;24.45;14.32;;;14.20;96.30;;;;;;5054193;28;20116;-57
2021/08/25 00:39:22;;;;;;;17.83;14.13;;;14.10;96.30;;;;;;5072004;28;20478;-58
2021/08/25 00:41:47;;;;;;;18.23;14.00;;;14.10;96.40;;;;;;5044226;28;20106;-58
2021/08/25 00:44:13;;;;;;;20.33;14.38;;;14.10;96.40;;;;;;5044057;28;20448;-58
2021/08/25 00:46:39;;;;;;;22.23;14.45;;;14.10;96.50;;;;;;5047980;28;20044;-58
2021/08/25 00:49:05;;;;;;;19.48;13.60;;;14.10;96.40;;;;;;5053771;28;20036;-58
2021/08/25 00:51:30;;;;;;;18.00;13.63;;;14.10;96.50;;;;;;5062427;28;20305;-58
2021/08/25 00:53:57;;;;;;;19.50;14.35;;;14.10;96.30;;;;;;5049961;28;20041;-58
2021/08/25 00:56:22;;;;;;;18.77;14.75;;;14.10;96.20;;;;;;5040050;28;20033;-58
2021/08/25 00:58:49;;;;;;;19.90;14.27;;;14.10;96.30;;;;;;5038297;28;20064;-58
2021/08/25 01:01:39;;;;;;;17.08;13.18;;;14.00;96.30;;;;;;5037286;28;20044;-58
2021/08/25 01:04:18;;;;;;;18.77;13.05;;;14.00;96.30;;;;;;5036767;28;20040;-58
2021/08/25 01:06:45;;;;;;;16.00;12.50;;;14.00;96.20;;;;;;5040196;28;20037;-58
2021/08/25 01:09:10;;;;;;;18.83;14.15;;;13.90;96.10;;;;;;5039884;28;20065;-58
2021/08/25 01:11:43;;;;;;;16.33;12.85;;;14.00;96.30;;;;;;5066036;28;20091;-58
2021/08/25 01:14:08;;;;;;;;;;;13.90;96.10;;;;;;5068452;28;20400;-58
2021/08/25 01:16:37;;;;;;;16.98;11.90;;;13.90;95.70;;;;;;5049544;28;19917;-58
2021/08/25 01:19:03;;;;;;;14.90;11.38;;;13.80;95.90;;;;;;5035393;28;20087;-58
2021/08/25 01:21:28;;;;;;;17.85;13.02;;;13.80;95.90;;;;;;5059637;28;20120;-58
2021/08/25 01:23:54;;;;;;;15.70;12.35;;;13.70;95.90;;;;;;5051692;28;20108;-59
2021/08/25 01:26:21;;;;;;;14.73;10.77;;;13.70;95.80;;;;;;5040502;28;20041;-58
2021/08/25 01:28:56;;;;;;;14.55;11.25;;;13.70;95.70;;;;;;5033788;28;20073;-58
2021/08/25 01:31:27;;;;;;;17.05;11.68;;;13.60;95.60;;;;;;5043611;28;20039;-58
2021/08/25 01:34:06;;;;;;;14.88;11.57;;;13.60;95.60;;;;;;5058709;28;20071;-58
2021/08/25 01:36:31;;;;;;;14.90;11.10;;;13.50;95.50;;;;;;5052275;28;20119;-58
2021/08/25 01:38:58;;;;;;;17.13;12.70;;;13.50;95.60;;;;;;5050937;28;20590;-58
2021/08/25 01:41:27;;;;;;;18.65;13.50;;;13.40;95.60;;;;;;5035937;28;20498;-58
2021/08/25 01:43:57;;;;;;;15.15;12.15;;;13.40;95.70;;;;;;5047844;28;20430;-58
2021/08/25 01:46:27;;;;;;;16.73;11.90;;;13.30;95.70;;;;;;5039673;28;20080;-58
2021/08/25 01:48:55;;;;;;;14.48;11.10;;;13.30;95.80;;;;;;5036824;28;20048;-58
2021/08/25 01:51:20;;;;;;;16.50;11.60;;;13.20;95.70;;;;;;5047861;28;20444;-58
2021/08/25 01:53:46;;;;;;;15.48;12.15;;;13.10;95.70;;;;;;5047473;28;20037;-57
2021/08/25 01:56:12;;;;;;;15.63;11.93;;;13.10;95.90;;;;;;5049870;28;20044;-58
2021/08/25 01:58:39;;;;;;;17.48;12.20;;;13.10;95.90;;;;;;5045657;28;20053;-58
2021/08/25 02:01:05;;;;;;;15.68;12.13;;;13.10;95.90;;;;;;5056634;28;20046;-57
2021/08/25 02:03:31;;;;;;;16.80;12.30;;;13.10;95.90;;;;;;5050350;28;20086;-58
2021/08/25 02:05:56;;;;;;;17.42;12.68;;;13.10;96.10;;;;;;5044778;28;20119;-58
2021/08/25 02:08:22;;;;;;;16.02;12.55;;;13.10;96.20;;;;;;5044197;28;20033;-58
2021/08/25 02:10:47;;;;;;;18.73;13.40;;;13.00;96.10;;;;;;5049651;28;20037;-58
2021/08/25 02:13:13;;;;;;;18.65;13.38;;;13.00;96.10;;;;;;5054226;28;20148;-58
2021/08/25 02:15:38;;;;;;;17.85;14.27;;;13.00;96.10;;;;;;5040822;28;20041;-58
2021/08/25 02:18:04;;;;;;;17.30;13.90;;;13.10;96.20;;;;;;5048052;28;20039;-58
2021/08/25 02:20:29;;;;;;;15.70;11.80;;;13.10;96.20;;;;;;5043913;28;20060;-58
2021/08/25 02:22:55;;;;;;;16.30;12.70;;;13.10;96.20;;;;;;5047066;28;20044;-58
2021/08/25 02:25:20;;;;;;;17.23;12.27;;;13.00;96.10;;;;;;5047962;28;20040;-58
2021/08/25 02:27:46;;;;;;;15.95;11.80;;;13.00;95.90;;;;;;5051923;28;20043;-58
2021/08/25 02:30:12;;;;;;;15.30;11.35;;;13.00;95.90;;;;;;5043552;28;20045;-58
2021/08/25 02:32:37;;;;;;;17.02;11.70;;;12.90;95.90;;;;;;5037848;28;20464;-58
2021/08/25 02:35:03;;;;;;;16.00;11.30;;;13.00;95.90;;;;;;5047065;28;20475;-58
2021/08/25 02:37:29;;;;;;;15.70;11.15;;;13.00;95.80;;;;;;5041711;28;20041;-58
2021/08/25 02:39:54;;;;;;;16.30;10.63;;;12.90;95.50;;;;;;5030309;28;20084;-59
2021/08/25 02:42:20;;;;;;;14.27;10.40;;;12.80;95.40;;;;;;5044605;28;20049;-59
2021/08/25 02:44:45;;;;;;;13.05;10.35;;;12.80;95.30;;;;;;5070367;28;20066;-59
2021/08/25 02:47:12;;;;;;;16.60;11.38;;;12.70;95.20;;;;;;5064843;28;20029;-59
2021/08/25 02:49:38;;;;;;;17.75;11.73;;;12.60;95.30;;;;;;5042254;28;20086;-58
2021/08/25 02:52:04;;;;;;;14.30;11.43;;;12.60;95.30;;;;;;5050621;28;20033;-58
2021/08/25 02:54:29;;;;;;;18.38;11.68;;;12.50;95.40;;;;;;5038949;28;20183;-59
2021/08/25 02:56:55;;;;;;;16.48;12.85;;;12.50;95.60;;;;;;5036877;28;20312;-59
2021/08/25 02:59:21;;;;;;;20.02;14.85;;;12.50;95.60;;;;;;5041148;28;20056;-59
2021/08/25 03:01:47;;;;;;;19.45;15.23;;;12.50;95.70;;;;;;5036199;28;20038;-59
2021/08/25 03:04:13;;;;;;;17.95;13.93;;;12.50;95.80;;;;;;5049193;28;20052;-59
2021/08/25 03:06:38;;;;;;;19.10;12.68;;;12.50;95.90;;;;;;5047334;28;20042;-58
2021/08/25 03:09:04;;;;;;;24.77;16.65;;;12.50;95.80;;;;;;5050951;28;20120;-58
2021/08/25 03:11:29;;;;;;;24.58;17.73;;;12.50;95.90;;;;;;5042185;28;20034;-59
2021/08/25 03:13:55;;;;;;;25.55;18.90;;;12.50;96.00;;;;;;5040808;28;20045;-58
2021/08/25 03:16:20;;;;;;;26.10;18.73;;;12.50;96.20;;;;;;5044736;28;20041;-56
2021/08/25 03:18:46;;;;;;;29.60;20.33;;;12.50;96.20;;;;;;5053811;28;20445;-57
2021/08/25 03:21:12;;;;;;;25.85;19.85;;;12.50;96.30;;;;;;5046697;28;20444;-58
2021/08/25 03:23:37;;;;;;;24.55;19.40;;;12.50;96.30;;;;;;5045169;28;20048;-58
2021/08/25 03:26:03;;;;;;;26.73;19.92;;;12.60;96.40;;;;;;5053657;28;20044;-58
2021/08/25 03:28:28;;;;;;;30.20;21.40;;;12.60;96.40;;;;;;5050327;28;20030;-58
2021/08/25 03:30:57;;;;;;;30.30;23.00;;;12.60;96.50;;;;;;5048616;28;20041;-58
2021/08/25 03:33:23;;;;;;;30.08;22.98;;;12.60;96.60;;;;;;5053362;28;20693;-58
2021/08/25 03:35:48;;;;;;;36.55;25.20;;;12.70;96.70;;;;;;5044620;28;20037;-58
2021/08/25 03:38:14;;;;;;;32.35;24.50;;;12.70;96.80;;;;;;5062226;28;20373;-58
2021/08/25 03:40:40;;;;;;;36.08;27.52;;;12.70;96.90;;;;;;5048163;28;20045;-58
2021/08/25 03:43:05;;;;;;;37.83;28.02;;;12.80;97.00;;;;;;5037107;28;20120;-58
2021/08/25 03:45:31;;;;;;;36.75;26.92;;;12.80;97.30;;;;;;5034512;28;20048;-57
2021/08/25 03:47:56;;;;;;;42.60;27.73;;;12.90;97.30;;;;;;5041680;28;20040;-58
2021/08/25 03:50:22;;;;;;;38.95;27.90;;;12.90;97.30;;;;;;5052842;28;20037;-58
2021/08/25 03:52:47;;;;;;;38.75;27.33;;;12.90;97.40;;;;;;5052887;28;20107;-58
2021/08/25 03:55:13;;;;;;;37.38;27.35;;;12.90;97.30;;;;;;5045079;28;20041;-58
2021/08/25 03:57:38;;;;;;;36.05;26.58;;;13.00;97.30;;;;;;5052671;28;20048;-58
2021/08/25 04:00:04;;;;;;;38.08;27.50;;;13.00;97.40;;;;;;5046218;28;20041;-58
2021/08/25 04:02:30;;;;;;;32.67;24.83;;;13.00;97.50;;;;;;5052218;28;20043;-58
2021/08/25 04:04:56;;;;;;;32.90;25.83;;;13.00;97.60;;;;;;5047689;28;20041;-59
2021/08/25 04:07:21;;;;;;;35.35;24.70;;;12.90;97.50;;;;;;5049479;28;20029;-57
2021/08/25 04:09:47;;;;;;;31.92;23.88;;;13.00;97.70;;;;;;5039929;28;20037;-58
2021/08/25 04:12:13;;;;;;;32.00;23.65;;;13.00;97.80;;;;;;5047852;28;20137;-58
2021/08/25 04:14:38;;;;;;;32.42;24.25;;;13.00;97.90;;;;;;5051733;28;20119;-58
2021/08/25 04:17:04;;;;;;;35.70;25.33;;;13.00;97.90;;;;;;5041285;28;20405;-58
2021/08/25 04:19:29;;;;;;;28.00;21.40;;;12.90;97.80;;;;;;5058349;28;20094;-58
2021/08/25 04:21:55;;;;;;;26.40;19.15;;;12.90;97.90;;;;;;5052289;28;20505;-58
2021/08/25 04:24:21;;;;;;;18.70;16.33;;;12.80;97.50;;;;;;5052551;28;20057;-58
2021/08/25 04:26:46;;;;;;;23.52;17.33;;;12.70;97.20;;;;;;5052223;28;20040;-59
2021/08/25 04:29:12;;;;;;;18.65;16.65;;;12.70;97.10;;;;;;5044905;28;20506;-59
2021/08/25 04:31:37;;;;;;;18.52;15.68;;;12.60;96.90;;;;;;5058809;28;20509;-59
2021/08/25 04:34:03;;;;;;;18.10;15.65;;;12.50;96.90;;;;;;5052681;28;20033;-59
2021/08/25 04:36:29;;;;;;;18.00;16.02;;;12.40;96.90;;;;;;5051949;28;20037;-56
2021/08/25 04:38:54;;;;;;;22.38;17.52;;;12.40;97.00;;;;;;5052203;28;20068;-59
2021/08/25 04:41:20;;;;;;;23.08;18.45;;;12.40;97.10;;;;;;5065253;28;20124;-59
2021/08/25 04:43:45;;;;;;;24.35;18.95;;;12.40;97.30;;;;;;5063056;28;20106;-59
2021/08/25 04:46:17;;;;;;;38.38;18.83;;;12.40;97.40;;;;;;5031990;28;20079;-59
2021/08/25 04:48:43;;;;;;;52.97;21.38;;;12.50;97.50;;;;;;5046690;28;20029;-59
2021/08/25 04:51:11;;;;;;;21.92;18.20;;;12.50;97.70;;;;;;5054999;28;20038;-59
2021/08/25 04:53:37;;;;;;;30.60;18.42;;;12.50;97.80;;;;;;5050410;28;20524;-59
2021/08/25 04:56:03;;;;;;;38.90;17.67;;;12.40;97.70;;;;;;5050591;28;20025;-59
2021/08/25 04:58:28;;;;;;;41.03;16.95;;;12.40;97.70;;;;;;5049972;28;20149;-57
2021/08/25 05:00:54;;;;;;;47.92;19.10;;;12.50;97.70;;;;;;5050276;28;20037;-59
2021/08/25 05:03:19;;;;;;;72.20;20.08;;;12.50;97.80;;;;;;5048776;28;20121;-59
2021/08/25 05:05:45;;;;;;;40.05;19.15;;;12.40;98.00;;;;;;5056187;28;20037;-59
2021/08/25 05:08:10;;;;;;;72.80;18.88;;;12.50;98.00;;;;;;5058286;28;20032;-58
2021/08/25 05:10:36;;;;;;;57.63;18.83;;;12.50;98.10;;;;;;5054446;28;20037;-59
2021/08/25 05:13:02;;;;;;;82.43;19.13;;;12.50;98.20;;;;;;5055712;28;20448;-58
2021/08/25 05:15:27;;;;;;;74.38;18.95;;;12.50;98.20;;;;;;5052097;28;20527;-59
2021/08/25 05:17:53;;;;;;;67.97;16.75;;;12.50;98.30;;;;;;5044380;28;20036;-59
2021/08/25 05:20:18;;;;;;;52.13;17.65;;;12.50;98.40;;;;;;5049450;28;20043;-60
2021/08/25 05:22:45;;;;;;;77.10;19.02;;;12.50;98.40;;;;;;5050037;28;20037;-60
2021/08/25 05:25:10;;;;;;;76.03;16.45;;;12.50;98.50;;;;;;5056323;28;20038;-59
2021/08/25 05:27:36;;;;;;;49.22;16.25;;;12.50;98.30;;;;;;5042571;28;20041;-60
2021/08/25 05:30:04;;;;;;;36.88;16.45;;;12.50;98.50;;;;;;5057221;28;20486;-59
2021/08/25 05:32:29;;;;;;;41.45;16.52;;;12.50;98.40;;;;;;5035532;28;20060;-59
2021/08/25 05:34:55;;;;;;;44.30;14.95;;;12.40;98.50;;;;;;5048571;28;20072;-60
2021/08/25 05:37:20;;;;;;;65.00;15.93;;;12.40;98.60;;;;;;5059394;28;20128;-60
2021/08/25 05:39:46;;;;;;;90.22;16.10;;;12.40;98.50;;;;;;5065015;28;20139;-60
2021/08/25 05:42:11;;;;;;;104.50;15.55;;;12.40;98.50;;;;;;5045538;28;20034;-58
2021/08/25 05:44:37;;;;;;;65.55;14.15;;;12.50;98.80;;;;;;5042689;28;20051;-60
2021/08/25 05:47:02;;;;;;;27.95;12.57;;;12.50;98.80;;;;;;5053085;28;20115;-60
2021/08/25 05:49:28;;;;;;;34.83;12.63;;;12.50;98.80;;;;;;5044993;28;20041;-60
2021/08/25 05:51:54;;;;;;;29.50;12.45;;;12.50;98.90;;;;;;5050712;28;20037;-60
2021/08/25 05:54:19;;;;;;;55.85;13.20;;;12.50;98.90;;;;;;5048670;28;20037;-58
2021/08/25 05:56:45;;;;;;;33.80;11.75;;;12.50;98.90;;;;;;5043244;28;20406;-59
2021/08/25 05:59:10;;;;;;;90.07;13.13;;;12.60;99.20;;;;;;5042175;28;20044;-60
2021/08/25 06:01:36;;;;;;;64.65;12.85;;;12.60;99.30;;;;;;5042734;28;20037;-60
2021/08/25 06:04:02;;;;;;;61.55;13.82;;;12.60;99.40;;;;;;5050230;28;20029;-60
2021/08/25 06:06:31;;;;;;;57.53;13.60;;;12.70;99.40;;;;;;5044144;28;20501;-60
2021/08/25 06:08:57;;;;;;;74.90;13.35;;;12.70;99.40;;;;;;5047993;28;20041;-60
2021/08/25 06:11:26;;;;;;;36.33;12.77;;;12.80;99.60;;;;;;5041975;28;20033;-59
2021/08/25 06:13:51;;;;;;;24.88;13.13;;;12.80;99.60;;;;;;5043218;28;20092;-60
2021/08/25 06:16:17;;;;;;;29.92;12.13;;;12.80;99.70;;;;;;5036130;28;20076;-60
2021/08/25 06:18:42;;;;;;;34.97;12.13;;;12.90;99.70;;;;;;5050459;28;20037;-60
2021/08/25 06:21:12;;;;;;;41.05;12.45;;;13.00;99.90;;;;;;5049779;28;20434;-60
2021/08/25 06:23:38;;;;;;;20.10;11.43;;;13.00;99.80;;;;;;5039333;28;23086;-59
2021/08/25 06:26:03;;;;;;;26.67;12.32;;;13.00;99.70;;;;;;5059213;28;20037;-60
2021/08/25 06:28:29;;;;;;;18.17;11.85;;;13.10;99.60;;;;;;5034510;28;20038;-58
2021/08/25 06:30:54;;;;;;;29.88;11.73;;;13.20;99.80;;;;;;5046470;28;20160;-57
2021/08/25 06:33:20;;;;;;;23.60;11.35;;;13.30;99.80;;;;;;5036614;28;20074;-60
2021/08/25 06:35:45;;;;;;;20.73;11.43;;;13.30;99.90;;;;;;5036093;28;20064;-59
2021/08/25 06:38:11;;;;;;;30.92;11.95;;;13.30;99.80;;;;;;5030598;28;20418;-60
2021/08/25 06:40:36;;;;;;;34.72;12.35;;;13.30;99.90;;;;;;5033643;28;20067;-60
2021/08/25 06:43:02;;;;;;;20.65;12.07;;;13.40;99.80;;;;;;5034896;28;20049;-60
2021/08/25 06:45:28;;;;;;;20.95;12.25;;;13.40;99.80;;;;;;5037402;28;20045;-60
2021/08/25 06:47:53;;;;;;;20.45;12.27;;;13.50;99.90;;;;;;5062168;28;20497;-60
2021/08/25 06:50:19;;;;;;;15.60;12.55;;;13.60;99.90;;;;;;5059860;28;20112;-58
2021/08/25 06:52:44;;;;;;;16.48;13.07;;;13.60;99.90;;;;;;5060305;28;20056;-60
2021/08/25 06:55:10;;;;;;;15.88;12.70;;;13.70;99.90;;;;;;5060810;28;20047;-60
2021/08/25 06:57:37;;;;;;;15.85;13.13;;;13.80;99.90;;;;;;5063497;28;20033;-60
2021/08/25 07:00:04;;;;;;;14.18;12.18;;;13.90;99.90;;;;;;5045237;28;20175;-60
2021/08/25 07:02:29;;;;;;;14.05;12.27;;;14.10;99.90;;;;;;5053705;28;20417;-60
2021/08/25 07:04:55;;;;;;;14.38;11.73;;;14.10;99.90;;;;;;5054395;28;20041;-60
2021/08/25 07:07:20;;;;;;;16.52;12.30;;;14.10;99.80;;;;;;5053644;28;20332;-60
2021/08/25 07:09:46;;;;;;;15.32;12.75;;;14.20;99.80;;;;;;5053932;28;20037;-60
2021/08/25 07:12:12;;;;;;;15.10;13.23;;;14.20;99.80;;;;;;5041703;28;20037;-60
2021/08/25 07:14:37;;;;;;;14.13;12.48;;;14.30;99.70;;;;;;5061812;28;20033;-60
2021/08/25 07:17:03;;;;;;;18.05;13.30;;;14.40;99.70;;;;;;5033989;28;20045;-60
2021/08/25 07:19:28;;;;;;;16.90;13.70;;;14.40;99.70;;;;;;5039424;28;20049;-60
2021/08/25 07:21:54;;;;;;;15.40;13.32;;;14.50;99.70;;;;;;5055321;28;20052;-60
2021/08/25 07:24:19;;;;;;;15.45;13.13;;;14.60;99.70;;;;;;5062817;28;20496;-60
2021/08/25 07:26:45;;;;;;;14.57;12.70;;;14.60;99.70;;;;;;5073752;28;20037;-60
2021/08/25 07:29:10;;;;;;;19.58;13.07;;;14.80;99.60;;;;;;5048702;28;20041;-60
2021/08/25 07:31:36;;;;;;;16.55;13.25;;;14.90;99.70;;;;;;5069778;28;20040;-59
2021/08/25 07:34:03;;;;;;;15.38;11.63;;;15.00;99.70;;;;;;5073610;28;20119;-59
2021/08/25 07:36:28;;;;;;;13.43;11.18;;;15.00;99.60;;;;;;5043121;28;20121;-59
2021/08/25 07:38:54;;;;;;;16.33;11.10;;;15.20;99.50;;;;;;5053584;28;20120;-60
2021/08/25 07:41:19;;;;;;;12.32;10.30;;;15.30;99.40;;;;;;5053400;28;20037;-60
2021/08/25 07:43:45;;;;;;;12.55;9.35;;;15.30;99.20;;;;;;5053282;28;20560;-60
2021/08/25 07:46:11;;;;;;;14.63;11.00;;;15.50;99.10;;;;;;5042027;28;20039;-59
2021/08/25 07:48:37;;;;;;;14.02;10.25;;;15.60;99.10;;;;;;5036544;28;20033;-59
2021/08/25 07:51:08;;;;;;;13.77;10.20;;;15.70;99.20;;;;;;5052839;28;20073;-60
2021/08/25 07:53:34;;;;;;;11.48;8.52;;;15.90;99.00;;;;;;5039737;28;20038;-60
2021/08/25 07:56:00;;;;;;;11.20;8.60;;;16.00;98.80;;;;;;5045227;28;20044;-60
2021/08/25 07:58:25;;;;;;;13.40;8.15;;;16.10;98.70;;;;;;5046732;28;20044;-60
2021/08/25 08:00:51;;;;;;;10.77;7.65;;;16.20;98.50;;;;;;5033090;28;20037;-60
2021/08/25 08:03:16;;;;;;;9.38;7.00;;;16.30;98.10;;;;;;5033281;28;20409;-58
2021/08/25 08:05:43;;;;;;;9.57;7.38;;;16.30;97.80;;;;;;5051204;28;20044;-60
2021/08/25 08:08:09;;;;;;;8.70;6.68;;;16.30;97.40;;;;;;5042717;28;20034;-60
2021/08/25 08:10:34;;;;;;;10.48;7.13;;;16.50;97.50;;;;;;5049213;28;20043;-60
2021/08/25 08:13:00;;;;;;;9.95;6.63;;;16.70;97.50;;;;;;5044764;28;20345;-60
2021/08/25 08:15:29;;;;;;;8.82;6.40;;;16.80;97.30;;;;;;5046983;28;20493;-60
2021/08/25 08:17:55;;;;;;;9.82;6.00;;;16.80;97.10;;;;;;5045843;28;20108;-60
2021/08/25 08:20:20;;;;;;;7.93;5.50;;;16.90;96.90;;;;;;5033022;28;20128;-60
2021/08/25 08:22:46;;;;;;;7.82;4.85;;;16.90;96.70;;;;;;5032736;28;20512;-60
2021/08/25 08:25:12;;;;;;;8.82;5.28;;;17.00;96.40;;;;;;5033047;28;20128;-60
2021/08/25 08:27:37;;;;;;;8.35;5.60;;;17.10;96.00;;;;;;5035380;28;20041;-59
2021/08/25 08:30:04;;;;;;;9.10;6.00;;;17.20;95.70;;;;;;5043556;28;20063;-60
2021/08/25 08:32:29;;;;;;;9.70;6.47;;;17.40;94.90;;;;;;5031858;28;20041;-59
2021/08/25 08:34:55;;;;;;;7.70;4.97;;;17.50;94.90;;;;;;5032645;28;20045;-60
2021/08/25 08:37:20;;;;;;;10.23;5.57;;;17.50;94.70;;;;;;5041127;28;20041;-60
2021/08/25 08:39:46;;;;;;;7.57;4.72;;;17.60;94.30;;;;;;5052128;28;20041;-60
2021/08/25 08:42:44;;;;;;;7.60;4.43;;;17.70;92.90;;;;;;5046036;28;20415;-58
2021/08/25 08:45:11;;;;;;;8.38;4.10;;;17.80;92.80;;;;;;5023180;28;20133;-59
2021/08/25 08:47:37;;;;;;;8.05;4.25;;;17.90;93.50;;;;;;5042811;28;20037;-60
2021/08/25 08:50:04;;;;;;;5.88;3.83;;;17.80;93.10;;;;;;5047358;28;20037;-60
2021/08/25 08:52:29;;;;;;;7.72;3.85;;;17.90;93.00;;;;;;5052200;28;20037;-60
2021/08/25 08:54:57;;;;;;;6.47;4.00;;;17.90;92.90;;;;;;5050841;28;20083;-60
2021/08/25 08:57:23;;;;;;;7.65;4.25;;;17.80;92.90;;;;;;5037836;28;20104;-60
2021/08/25 08:59:50;;;;;;;6.38;4.00;;;17.90;92.20;;;;;;5040487;28;20077;-60
2021/08/25 09:02:39;;;;;;;10.18;4.35;;;18.00;92.30;;;;;;5032217;28;20405;-60
2021/08/25 09:05:21;;;;;;;8.25;4.00;;;18.10;92.90;;;;;;5045300;28;20074;-59
2021/08/25 09:08:04;;;;;;;6.55;4.10;;;18.30;92.00;;;;;;5031810;28;20037;-61
2021/08/25 09:10:38;;;;;;;11.02;4.75;;;18.30;92.20;;;;;;5048463;28;20050;-60
2021/08/25 09:13:13;;;;;;;8.70;3.80;;;18.40;91.90;;;;;;5051864;28;20033;-60
2021/08/25 09:15:43;;;;;;;8.15;3.70;;;18.40;91.90;;;;;;5065295;28;20041;-60
2021/08/25 09:18:10;;;;;;;10.18;4.25;;;18.30;91.70;;;;;;5051367;28;20486;-58
2021/08/25 09:20:45;;;;;;;9.82;4.00;;;18.20;91.50;;;;;;5066300;28;20039;-60
2021/08/25 09:23:17;;;;;;;5.85;3.70;;;18.20;91.70;;;;;;5071258;28;20542;-58
2021/08/25 09:25:44;;;;;;;7.50;3.78;;;18.30;91.90;;;;;;5068909;28;20090;-60
2021/08/25 09:28:13;;;;;;;7.00;3.90;;;18.50;91.90;;;;;;5050902;28;20505;-59
2021/08/25 09:30:56;;;;;;;6.75;3.63;;;18.60;91.50;;;;;;5038050;28;20108;-60
2021/08/25 09:33:27;;;;;;;7.07;3.05;;;18.60;90.50;;;;;;5047051;28;20074;-61
2021/08/25 09:36:05;;;;;;;7.20;3.00;;;18.70;91.00;;;;;;5049804;28;20042;-60
2021/08/25 09:38:32;;;;;;;7.05;3.30;;;18.70;90.50;;;;;;5035626;28;20037;-60
2021/08/25 09:41:04;;;;;;;5.13;3.05;;;18.70;90.50;;;;;;5040689;28;20417;-60
2021/08/25 09:43:31;;;;;;;6.78;2.70;;;18.60;90.30;;;;;;5031443;28;20064;-60
2021/08/25 09:46:11;;;;;;;6.43;2.30;;;18.50;90.10;;;;;;5041327;28;20318;-61
2021/08/25 09:48:44;;;;;;;4.20;2.20;;;18.50;89.70;;;;;;5035441;28;20044;-58
2021/08/25 09:51:11;;;;;;;4.47;2.30;;;18.50;89.80;;;;;;5060185;28;20044;-60
2021/08/25 09:53:37;;;;;;;6.15;2.63;;;18.80;90.00;;;;;;5064731;28;20037;-60
2021/08/25 09:56:32;;;;;;;5.78;2.35;;;19.00;89.30;;;;;;5047309;28;20040;-60
2021/08/25 09:58:58;;;;;;;4.35;2.30;;;19.30;89.60;;;;;;5062195;28;20064;-59
2021/08/25 10:01:24;;;;;;;5.10;2.10;;;19.50;87.60;;;;;;5058730;28;20521;-59
2021/08/25 10:03:50;;;;;;;5.03;2.17;;;19.40;85.70;;;;;;5061128;28;20061;-60
2021/08/25 10:06:20;;;;;;;4.63;2.10;;;19.30;85.70;;;;;;5037204;28;20547;-58
2021/08/25 10:08:46;;;;;;;4.22;2.17;;;19.10;85.90;;;;;;5047303;28;20090;-59
2021/08/25 10:11:13;;;;;;;6.35;2.47;;;19.20;86.20;;;;;;5036482;28;20275;-60
2021/08/25 10:13:40;;;;;;;5.13;2.00;;;19.30;86.10;;;;;;5060593;28;20036;-61
2021/08/25 10:16:11;;;;;;;4.95;2.20;;;19.40;86.20;;;;;;5052117;28;20394;-59
2021/08/25 10:18:38;;;;;;;3.78;2.10;;;19.30;85.40;;;;;;5057450;28;20124;-59
2021/08/25 10:21:24;;;;;;;5.25;2.65;;;19.20;85.70;;;;;;5060981;28;20500;-61
2021/08/25 10:23:56;;;;;;;5.72;2.20;;;19.00;86.20;;;;;;5049009;28;20469;-60
2021/08/25 10:26:22;;;;;;;4.20;2.20;;;19.00;86.10;;;;;;5052454;28;20436;-58
2021/08/25 10:29:07;;;;;;;3.13;2.05;;;19.10;85.90;;;;;;5056236;28;20041;-60
2021/08/25 10:31:51;;;;;;;3.35;2.10;;;19.40;85.40;;;;;;5053851;28;20043;-60
2021/08/25 10:34:22;;;;;;;2.40;1.55;;;19.60;83.40;;;;;;5051800;28;20041;-61
2021/08/25 10:36:52;;;;;;;4.28;1.75;;;19.50;80.20;;;;;;5048365;28;20048;-60
2021/08/25 10:39:33;;;;;;;3.65;1.80;;;19.30;81.20;;;;;;5050594;28;20047;-61
2021/08/25 10:42:00;;;;;;;3.80;1.77;;;19.20;81.60;;;;;;5031627;28;20117;-60
2021/08/25 10:44:40;;;;;;;3.25;1.63;;;19.10;83.60;;;;;;5030906;28;20121;-60
2021/08/25 10:47:10;;;;;;;3.60;1.50;;;19.10;83.40;;;;;;5035243;28;20041;-60
2021/08/25 10:49:42;;;;;;;3.83;1.67;;;19.20;82.90;;;;;;5051012;28;20080;-57
2021/08/25 10:52:17;;;;;;;5.30;1.70;;;19.40;82.80;;;;;;5046066;28;20045;-58
2021/08/25 10:54:48;;;;;;;3.92;1.80;;;19.60;82.50;;;;;;5030746;28;20050;-57
2021/08/25 10:57:16;;;;;;;2.90;1.80;;;19.70;81.70;;;;;;5030153;28;20045;-57
2021/08/25 10:59:41;;;;;;;3.97;1.65;;;19.90;81.00;;;;;;5041290;28;20516;-57
2021/08/25 11:02:07;;;;;;;2.88;1.50;;;20.10;80.50;;;;;;5035951;28;20049;-57
2021/08/25 11:04:33;;;;;;;2.85;1.52;;;20.30;79.70;;;;;;5050637;28;20045;-56
2021/08/25 11:07:09;;;;;;;3.72;1.67;;;20.40;79.40;;;;;;5049722;28;20041;-58
2021/08/25 11:09:36;;;;;;;3.40;1.50;;;20.40;78.30;;;;;;5042404;28;20095;-58
2021/08/25 11:12:10;;;;;;;2.42;1.38;;;20.50;73.30;;;;;;5044674;28;20041;-58
2021/08/25 11:14:44;;;;;;;3.05;1.40;;;20.60;76.20;;;;;;5050166;28;20037;-57
2021/08/25 11:17:11;;;;;;;2.67;1.40;;;20.60;76.30;;;;;;5036272;28;20049;-56
2021/08/25 11:19:49;;;;;;;2.45;1.17;;;20.60;77.10;;;;;;5056986;28;20042;-56
2021/08/25 11:22:29;;;;;;;1.90;1.10;;;20.60;77.80;;;;;;5033896;28;20573;-58
2021/08/25 11:25:14;;;;;;;1.65;1.23;;;20.50;78.20;;;;;;5031852;28;20048;-57
2021/08/25 11:27:47;;;;;;;1.67;1.10;;;20.60;76.90;;;;;;5048207;28;20025;-57
2021/08/25 11:30:26;;;;;;;2.38;1.10;;;20.60;76.70;;;;;;5042199;28;20550;-55
2021/08/25 11:32:58;;;;;;;2.35;0.75;;;20.70;76.70;;;;;;5051205;28;20389;-55
2021/08/25 11:35:38;;;;;;;1.48;0.90;;;20.70;76.40;;;;;;5037310;28;20041;-55
2021/08/25 11:38:09;;;;;;;1.05;0.80;;;20.50;76.70;;;;;;5048094;28;20073;-55
2021/08/25 11:40:37;;;;;;;2.00;0.82;;;20.20;77.80;;;;;;5046402;28;20080;-54
2021/08/25 11:43:11;;;;;;;1.58;0.80;;;20.00;78.80;;;;;;5033876;28;20509;-56
2021/08/25 11:45:38;;;;;;;1.38;0.70;;;19.90;79.70;;;;;;5033795;28;20045;-55
2021/08/25 11:48:05;;;;;;;3.53;0.82;;;19.80;81.10;;;;;;5033216;28;20379;-55
2021/08/25 11:50:33;;;;;;;1.58;0.80;;;19.70;80.90;;;;;;5033111;28;20397;-55
2021/08/25 11:53:00;;;;;;;2.72;1.08;;;19.70;81.00;;;;;;5033811;28;20037;-54
2021/08/25 11:55:26;;;;;;;1.35;1.20;;;19.90;78.20;;;;;;5047382;28;20041;-53
2021/08/25 11:57:56;;;;;;;1.88;0.88;;;19.90;79.20;;;;;;5052520;28;20072;-55
2021/08/25 12:00:43;;;;;;;2.17;0.70;;;20.00;80.20;;;;;;5056223;28;20405;-57
2021/08/25 12:03:09;;;;;;;4.00;0.70;;;19.90;80.20;;;;;;5052965;28;20084;-57
2021/08/25 12:05:49;;;;;;;0.55;0.55;;;19.80;79.90;;;;;;5052970;28;20083;-56
2021/08/25 12:08:14;;;;;;;0.60;0.60;;;19.60;80.20;;;;;;5053038;28;20048;-57
2021/08/25 12:10:43;;;;;;;1.17;0.80;;;19.50;81.30;;;;;;5069469;28;20400;-55
2021/08/25 12:13:11;;;;;;;1.20;0.70;;;19.50;80.80;;;;;;5062998;28;20083;-55
2021/08/25 12:15:52;;;;;;;2.33;0.63;;;19.40;81.40;;;;;;5068371;28;20045;-56
2021/08/25 12:18:20;;;;;;;1.48;0.60;;;19.40;81.80;;;;;;5062930;28;20040;-55
2021/08/25 12:20:48;;;;;;;1.00;0.50;;;19.30;81.90;;;;;;5068627;28;20489;-53
2021/08/25 12:23:16;;;;;;;2.92;0.60;;;19.30;82.10;;;;;;5058599;28;20049;-53
2021/08/25 12:25:54;;;;;;;1.25;0.40;;;19.30;81.80;;;;;;5057231;28;20044;-53
2021/08/25 12:28:37;;;;;;;0.75;0.50;;;19.30;82.40;;;;;;5041229;28;20036;-53
2021/08/25 12:31:11;;;;;;;1.25;0.40;;;19.40;83.00;;;;;;5063091;28;20033;-53
2021/08/25 12:33:37;;;;;;;0.95;0.50;;;19.30;82.80;;;;;;5034659;28;20041;-52
2021/08/25 12:36:27;;;;;;;1.40;0.47;;;19.40;82.70;;;;;;5049335;28;20044;-54